sensor_id;sensor_type;location;lat;lon;timestamp;pressure;altitude;pressure_sealevel;temperature;humidity
71791;BME280;59638;52.126;5.434;2024-02-16T00:01:40;100988.47;;;10.94;100.00
71791;BME280;59638;52.126;5.434;2024-02-16T00:04:07;100979.28;;;10.88;100.00
71791;BME280;59638;52.126;5.434;2024-02-16T00:06:33;100983.06;;;10.86;100.00
71791;BME280;59638;52.126;5.434;2024-02-16T00:09:00;100984.28;;;10.82;100.00
71791;BME280;59638;52.126;5.434;2024-02-16T00:11:27;100977.19;;;10.82;100.00
71791;BME280;59638;52.126;5.434;2024-02-16T00:13:55;100973.44;;;10.75;100.00
71791;BME280;59638;52.126;5.434;2024-02-16T00:16:21;100972.34;;;10.78;100.00
71791;BME280;59638;52.126;5.434;2024-02-16T00:18:48;100977.88;;;10.75;100.00
71791;BME280;59638;52.126;5.434;2024-02-16T00:21:14;100980.41;;;10.76;100.00
71791;BME280;59638;52.126;5.434;2024-02-16T00:23:43;100976.50;;;10.71;100.00
71791;BME280;59638;52.126;5.434;2024-02-16T00:26:10;100971.47;;;10.68;100.00
71791;BME280;59638;52.126;5.434;2024-02-16T00:28:37;100970.34;;;10.60;100.00
71791;BME280;59638;52.126;5.434;2024-02-16T00:31:04;100970.50;;;10.59;100.00
71791;BME280;59638;52.126;5.434;2024-02-16T00:33:32;100980.06;;;10.60;100.00
71791;BME280;59638;52.126;5.434;2024-02-16T00:36:00;100975.06;;;10.57;100.00
71791;BME280;59638;52.126;5.434;2024-02-16T00:38:26;100979.78;;;10.53;100.00
71791;BME280;59638;52.126;5.434;2024-02-16T00:40:52;100973.06;;;10.49;100.00
71791;BME280;59638;52.126;5.434;2024-02-16T00:43:19;100971.41;;;10.48;100.00
71791;BME280;59638;52.126;5.434;2024-02-16T00:45:45;100970.19;;;10.52;100.00
71791;BME280;59638;52.126;5.434;2024-02-16T00:48:12;100963.25;;;10.51;100.00
71791;BME280;59638;52.126;5.434;2024-02-16T00:50:39;100972.25;;;10.49;100.00
71791;BME280;59638;52.126;5.434;2024-02-16T00:53:06;100968.09;;;10.46;100.00
71791;BME280;59638;52.126;5.434;2024-02-16T00:55:32;100965.00;;;10.41;100.00
71791;BME280;59638;52.126;5.434;2024-02-16T00:57:59;100964.31;;;10.39;100.00
71791;BME280;59638;52.126;5.434;2024-02-16T01:00:25;100963.34;;;10.40;100.00
71791;BME280;59638;52.126;5.434;2024-02-16T01:02:52;100961.09;;;10.35;100.00
71791;BME280;59638;52.126;5.434;2024-02-16T01:05:19;100965.53;;;10.35;100.00
71791;BME280;59638;52.126;5.434;2024-02-16T01:07:46;100960.00;;;10.38;100.00
71791;BME280;59638;52.126;5.434;2024-02-16T01:10:13;100956.78;;;10.34;100.00
71791;BME280;59638;52.126;5.434;2024-02-16T01:12:39;100951.91;;;10.30;100.00
71791;BME280;59638;52.126;5.434;2024-02-16T01:15:06;100948.56;;;10.28;100.00
71791;BME280;59638;52.126;5.434;2024-02-16T01:17:33;100944.41;;;10.25;100.00
71791;BME280;59638;52.126;5.434;2024-02-16T01:19:59;100942.41;;;10.18;100.00
71791;BME280;59638;52.126;5.434;2024-02-16T01:22:26;100949.59;;;10.16;100.00
71791;BME280;59638;52.126;5.434;2024-02-16T01:24:55;100935.88;;;10.22;100.00
71791;BME280;59638;52.126;5.434;2024-02-16T01:27:21;100947.41;;;10.21;100.00
71791;BME280;59638;52.126;5.434;2024-02-16T01:29:48;100934.94;;;10.23;100.00
71791;BME280;59638;52.126;5.434;2024-02-16T01:32:14;100933.22;;;10.22;100.00
71791;BME280;59638;52.126;5.434;2024-02-16T01:34:41;100937.13;;;10.18;100.00
71791;BME280;59638;52.126;5.434;2024-02-16T01:37:10;100929.22;;;10.18;100.00
71791;BME280;59638;52.126;5.434;2024-02-16T01:39:36;100928.78;;;10.13;100.00
71791;BME280;59638;52.126;5.434;2024-02-16T01:42:03;100924.31;;;10.13;100.00
71791;BME280;59638;52.126;5.434;2024-02-16T01:44:29;100924.72;;;10.08;100.00
71791;BME280;59638;52.126;5.434;2024-02-16T01:46:56;100920.69;;;10.04;100.00
71791;BME280;59638;52.126;5.434;2024-02-16T01:49:22;100926.22;;;10.01;100.00
71791;BME280;59638;52.126;5.434;2024-02-16T01:51:49;100926.22;;;10.01;100.00
71791;BME280;59638;52.126;5.434;2024-02-16T01:54:16;100923.97;;;9.97;100.00
71791;BME280;59638;52.126;5.434;2024-02-16T01:56:44;100928.69;;;9.93;100.00
71791;BME280;59638;52.126;5.434;2024-02-16T01:59:11;100929.00;;;10.00;100.00
71791;BME280;59638;52.126;5.434;2024-02-16T02:01:38;100924.81;;;9.97;100.00
71791;BME280;59638;52.126;5.434;2024-02-16T02:04:04;100920.25;;;9.99;100.00
71791;BME280;59638;52.126;5.434;2024-02-16T02:06:32;100920.94;;;10.01;100.00
71791;BME280;59638;52.126;5.434;2024-02-16T02:08:59;100911.81;;;10.05;100.00
71791;BME280;59638;52.126;5.434;2024-02-16T02:11:25;100910.56;;;10.09;100.00
71791;BME280;59638;52.126;5.434;2024-02-16T02:13:51;100910.31;;;10.13;100.00
71791;BME280;59638;52.126;5.434;2024-02-16T02:16:19;100907.13;;;10.19;100.00
71791;BME280;59638;52.126;5.434;2024-02-16T02:18:46;100906.03;;;10.21;100.00
71791;BME280;59638;52.126;5.434;2024-02-16T02:21:12;100914.56;;;10.25;100.00
71791;BME280;59638;52.126;5.434;2024-02-16T02:23:41;100911.91;;;10.25;100.00
71791;BME280;59638;52.126;5.434;2024-02-16T02:26:07;100907.91;;;10.30;100.00
71791;BME280;59638;52.126;5.434;2024-02-16T02:28:34;100918.88;;;10.35;100.00
71791;BME280;59638;52.126;5.434;2024-02-16T02:31:00;100916.81;;;10.39;100.00
71791;BME280;59638;52.126;5.434;2024-02-16T02:33:27;100917.78;;;10.38;100.00
71791;BME280;59638;52.126;5.434;2024-02-16T02:35:53;100916.81;;;10.39;100.00
71791;BME280;59638;52.126;5.434;2024-02-16T02:38:20;100908.63;;;10.42;100.00
71791;BME280;59638;52.126;5.434;2024-02-16T02:40:46;100908.50;;;10.44;100.00
71791;BME280;59638;52.126;5.434;2024-02-16T02:43:13;100904.31;;;10.41;100.00
71791;BME280;59638;52.126;5.434;2024-02-16T02:45:40;100901.94;;;10.38;100.00
71791;BME280;59638;52.126;5.434;2024-02-16T02:48:06;100891.66;;;10.35;100.00
71791;BME280;59638;52.126;5.434;2024-02-16T02:50:33;100890.13;;;10.32;100.00
71791;BME280;59638;52.126;5.434;2024-02-16T02:53:00;100895.00;;;10.37;100.00
71791;BME280;59638;52.126;5.434;2024-02-16T02:55:26;100888.88;;;10.37;100.00
71791;BME280;59638;52.126;5.434;2024-02-16T02:57:53;100886.56;;;10.43;100.00
71791;BME280;59638;52.126;5.434;2024-02-16T03:00:19;100880.31;;;10.44;100.00
71791;BME280;59638;52.126;5.434;2024-02-16T03:02:46;100878.22;;;10.48;100.00
71791;BME280;59638;52.126;5.434;2024-02-16T03:05:13;100873.94;;;10.56;100.00
71791;BME280;59638;52.126;5.434;2024-02-16T03:07:39;100872.25;;;10.55;100.00
71791;BME280;59638;52.126;5.434;2024-02-16T03:10:07;100880.00;;;10.47;100.00
71791;BME280;59638;52.126;5.434;2024-02-16T03:12:36;100876.16;;;10.51;100.00
71791;BME280;59638;52.126;5.434;2024-02-16T03:15:02;100874.19;;;10.53;100.00
71791;BME280;59638;52.126;5.434;2024-02-16T03:17:30;100870.16;;;10.49;100.00
71791;BME280;59638;52.126;5.434;2024-02-16T03:19:56;100868.91;;;10.44;100.00
71791;BME280;59638;52.126;5.434;2024-02-16T03:22:23;100876.94;;;10.32;100.00
71791;BME280;59638;52.126;5.434;2024-02-16T03:24:49;100870.81;;;10.32;100.00
71791;BME280;59638;52.126;5.434;2024-02-16T03:27:16;100872.34;;;10.25;100.00
71791;BME280;59638;52.126;5.434;2024-02-16T03:29:42;100874.06;;;10.15;100.00
71791;BME280;59638;52.126;5.434;2024-02-16T03:32:09;100875.03;;;10.14;100.00
71791;BME280;59638;52.126;5.434;2024-02-16T03:34:35;100868.09;;;10.13;100.00
71791;BME280;59638;52.126;5.434;2024-02-16T03:37:02;100866.00;;;10.06;100.00
71791;BME280;59638;52.126;5.434;2024-02-16T03:39:28;100872.41;;;10.14;100.00
71791;BME280;59638;52.126;5.434;2024-02-16T03:41:55;100874.59;;;10.08;100.00
71791;BME280;59638;52.126;5.434;2024-02-16T03:44:21;100864.59;;;10.02;100.00
71791;BME280;59638;52.126;5.434;2024-02-16T03:46:48;100879.13;;;9.97;100.00
71791;BME280;59638;52.126;5.434;2024-02-16T03:49:15;100867.06;;;9.94;100.00
71791;BME280;59638;52.126;5.434;2024-02-16T03:51:42;100864.88;;;9.99;100.00
71791;BME280;59638;52.126;5.434;2024-02-16T03:54:08;100870.13;;;9.99;100.00
71791;BME280;59638;52.126;5.434;2024-02-16T03:56:35;100870.97;;;10.00;100.00
71791;BME280;59638;52.126;5.434;2024-02-16T03:59:01;100865.13;;;9.96;100.00
71791;BME280;59638;52.126;5.434;2024-02-16T04:01:30;100874.97;;;9.94;100.00
71791;BME280;59638;52.126;5.434;2024-02-16T04:03:57;100863.97;;;9.89;100.00
71791;BME280;59638;52.126;5.434;2024-02-16T04:06:23;100870.06;;;9.80;100.00
71791;BME280;59638;52.126;5.434;2024-02-16T04:08:51;100879.50;;;9.82;100.00
71791;BME280;59638;52.126;5.434;2024-02-16T04:11:17;100875.63;;;9.87;100.00
71791;BME280;59638;52.126;5.434;2024-02-16T04:13:44;100873.31;;;9.93;100.00
71791;BME280;59638;52.126;5.434;2024-02-16T04:16:10;100877.34;;;9.97;100.00
71791;BME280;59638;52.126;5.434;2024-02-16T04:18:37;100872.63;;;9.91;100.00
71791;BME280;59638;52.126;5.434;2024-02-16T04:21:04;100888.13;;;9.85;100.00
71791;BME280;59638;52.126;5.434;2024-02-16T04:23:31;100876.19;;;9.90;100.00
71791;BME280;59638;52.126;5.434;2024-02-16T04:25:57;100875.31;;;9.80;100.00
71791;BME280;59638;52.126;5.434;2024-02-16T04:28:24;100869.47;;;9.76;100.00
71791;BME280;59638;52.126;5.434;2024-02-16T04:30:50;100865.75;;;9.79;100.00
71791;BME280;59638;52.126;5.434;2024-02-16T04:33:17;100870.22;;;9.88;100.00
71791;BME280;59638;52.126;5.434;2024-02-16T04:35:43;100869.00;;;9.92;100.00
71791;BME280;59638;52.126;5.434;2024-02-16T04:38:13;100867.06;;;9.94;100.00
71791;BME280;59638;52.126;5.434;2024-02-16T04:40:39;100854.16;;;9.91;100.00
71791;BME280;59638;52.126;5.434;2024-02-16T04:43:06;100863.00;;;9.90;100.00
71791;BME280;59638;52.126;5.434;2024-02-16T04:45:33;100871.78;;;9.91;100.00
71791;BME280;59638;52.126;5.434;2024-02-16T04:48:03;100874.53;;;9.89;100.00
71791;BME280;59638;52.126;5.434;2024-02-16T04:50:32;100877.34;;;9.97;100.00
71791;BME280;59638;52.126;5.434;2024-02-16T04:52:59;100875.41;;;9.99;100.00
71791;BME280;59638;52.126;5.434;2024-02-16T04:55:26;100873.75;;;9.98;100.00
71791;BME280;59638;52.126;5.434;2024-02-16T04:57:52;100878.75;;;10.01;100.00
71791;BME280;59638;52.126;5.434;2024-02-16T05:00:19;100876.38;;;9.98;100.00
71791;BME280;59638;52.126;5.434;2024-02-16T05:02:46;100874.31;;;10.02;100.00
71791;BME280;59638;52.126;5.434;2024-02-16T05:05:12;100874.16;;;10.03;100.00
71791;BME280;59638;52.126;5.434;2024-02-16T05:07:39;100867.66;;;10.07;100.00
71791;BME280;59638;52.126;5.434;2024-02-16T05:10:08;100873.50;;;10.11;100.00
71791;BME280;59638;52.126;5.434;2024-02-16T05:12:36;100871.72;;;10.12;100.00
71791;BME280;59638;52.126;5.434;2024-02-16T05:15:04;100874.34;;;10.12;100.00
71791;BME280;59638;52.126;5.434;2024-02-16T05:17:32;100873.22;;;10.14;100.00
71791;BME280;59638;52.126;5.434;2024-02-16T05:19:58;100876.47;;;10.18;100.00
71791;BME280;59638;52.126;5.434;2024-02-16T05:22:25;100868.78;;;10.15;100.00
71791;BME280;59638;52.126;5.434;2024-02-16T05:24:51;100866.44;;;10.12;100.00
71791;BME280;59638;52.126;5.434;2024-02-16T05:27:18;100863.50;;;10.05;100.00
71791;BME280;59638;52.126;5.434;2024-02-16T05:29:44;100862.25;;;10.09;100.00
71791;BME280;59638;52.126;5.434;2024-02-16T05:32:11;100857.28;;;10.16;100.00
71791;BME280;59638;52.126;5.434;2024-02-16T05:34:39;100866.59;;;10.20;100.00
71791;BME280;59638;52.126;5.434;2024-02-16T05:37:06;100859.16;;;10.25;100.00
71791;BME280;59638;52.126;5.434;2024-02-16T05:39:33;100851.94;;;10.27;100.00
71791;BME280;59638;52.126;5.434;2024-02-16T05:42:09;100856.72;;;10.22;100.00
71791;BME280;59638;52.126;5.434;2024-02-16T05:44:36;100858.69;;;10.20;100.00
71791;BME280;59638;52.126;5.434;2024-02-16T05:47:03;100856.72;;;10.22;100.00
71791;BME280;59638;52.126;5.434;2024-02-16T05:49:30;100868.03;;;10.24;100.00
71791;BME280;59638;52.126;5.434;2024-02-16T05:51:56;100862.47;;;10.27;100.00
71791;BME280;59638;52.126;5.434;2024-02-16T05:54:42;100857.47;;;10.24;100.00
71791;BME280;59638;52.126;5.434;2024-02-16T05:57:08;100859.97;;;10.25;100.00
71791;BME280;59638;52.126;5.434;2024-02-16T05:59:35;100860.13;;;10.24;100.00
71791;BME280;59638;52.126;5.434;2024-02-16T06:02:02;100862.97;;;10.21;100.00
71791;BME280;59638;52.126;5.434;2024-02-16T06:04:29;100859.84;;;10.27;100.00
71791;BME280;59638;52.126;5.434;2024-02-16T06:06:55;100872.34;;;10.25;100.00
71791;BME280;59638;52.126;5.434;2024-02-16T06:09:22;100867.75;;;10.27;100.00
71791;BME280;59638;52.126;5.434;2024-02-16T06:11:48;100874.00;;;10.26;100.00
71791;BME280;59638;52.126;5.434;2024-02-16T06:14:15;100866.34;;;10.23;100.00
71791;BME280;59638;52.126;5.434;2024-02-16T06:16:45;100864.28;;;10.26;100.00
71791;BME280;59638;52.126;5.434;2024-02-16T06:19:12;100865.81;;;10.29;100.00
71791;BME280;59638;52.126;5.434;2024-02-16T06:21:39;100877.47;;;10.26;100.00
71791;BME280;59638;52.126;5.434;2024-02-16T06:24:05;100883.88;;;10.24;100.00
71791;BME280;59638;52.126;5.434;2024-02-16T06:26:32;100882.75;;;10.26;100.00
71791;BME280;59638;52.126;5.434;2024-02-16T06:28:58;100889.69;;;10.27;100.00
71791;BME280;59638;52.126;5.434;2024-02-16T06:31:25;100900.69;;;10.32;100.00
71791;BME280;59638;52.126;5.434;2024-02-16T06:33:52;100896.50;;;10.30;100.00
71791;BME280;59638;52.126;5.434;2024-02-16T06:36:18;100907.47;;;10.35;100.00
71791;BME280;59638;52.126;5.434;2024-02-16T06:38:45;100908.31;;;10.35;100.00
71791;BME280;59638;52.126;5.434;2024-02-16T06:41:12;100908.63;;;10.42;100.00
71791;BME280;59638;52.126;5.434;2024-02-16T06:43:39;100907.66;;;10.43;100.00
71791;BME280;59638;52.126;5.434;2024-02-16T06:46:05;100907.22;;;10.38;100.00
71791;BME280;59638;52.126;5.434;2024-02-16T06:48:32;100911.38;;;10.31;100.00
71791;BME280;59638;52.126;5.434;2024-02-16T06:50:58;100916.91;;;10.28;100.00
71791;BME280;59638;52.126;5.434;2024-02-16T06:53:25;100929.13;;;10.29;100.00
71791;BME280;59638;52.126;5.434;2024-02-16T06:55:51;100926.38;;;10.30;100.00
71791;BME280;59638;52.126;5.434;2024-02-16T06:58:18;100932.19;;;10.34;100.00
71791;BME280;59638;52.126;5.434;2024-02-16T07:00:44;100930.25;;;10.36;100.00
71791;BME280;59638;52.126;5.434;2024-02-16T07:03:11;100922.34;;;10.36;100.00
71791;BME280;59638;52.126;5.434;2024-02-16T07:05:37;100928.88;;;10.32;100.00
71791;BME280;59638;52.126;5.434;2024-02-16T07:08:05;100923.06;;;10.38;100.00
71791;BME280;59638;52.126;5.434;2024-02-16T07:10:33;100928.06;;;10.41;100.00
71791;BME280;59638;52.126;5.434;2024-02-16T07:13:00;100941.97;;;10.43;100.00
71791;BME280;59638;52.126;5.434;2024-02-16T07:15:27;100936.69;;;10.43;100.00
71791;BME280;59638;52.126;5.434;2024-02-16T07:17:53;100944.72;;;10.42;100.00
71791;BME280;59638;52.126;5.434;2024-02-16T07:20:20;100956.09;;;10.42;100.00
71791;BME280;59638;52.126;5.434;2024-02-16T07:22:46;100952.53;;;10.43;100.00
71791;BME280;59638;52.126;5.434;2024-02-16T07:25:13;100954.19;;;10.44;100.00
71791;BME280;59638;52.126;5.434;2024-02-16T07:27:39;100954.19;;;10.44;100.00
71791;BME280;59638;52.126;5.434;2024-02-16T07:30:08;100957.81;;;10.43;100.00
71791;BME280;59638;52.126;5.434;2024-02-16T07:32:37;100955.84;;;10.45;100.00
71791;BME280;59638;52.126;5.434;2024-02-16T07:35:04;100963.78;;;10.45;100.00
71791;BME280;59638;52.126;5.434;2024-02-16T07:37:30;100966.97;;;10.49;100.00
71791;BME280;59638;52.126;5.434;2024-02-16T07:39:57;100965.88;;;10.51;100.00
71791;BME280;59638;52.126;5.434;2024-02-16T07:42:23;100970.88;;;10.54;100.00
71791;BME280;59638;52.126;5.434;2024-02-16T07:44:50;100977.56;;;10.58;100.00
71791;BME280;59638;52.126;5.434;2024-02-16T07:47:19;100974.78;;;10.60;100.00
71791;BME280;59638;52.126;5.434;2024-02-16T07:49:45;100983.53;;;10.60;100.00
71791;BME280;59638;52.126;5.434;2024-02-16T07:52:13;100986.19;;;10.60;100.00
71791;BME280;59638;52.126;5.434;2024-02-16T07:54:39;100980.38;;;10.67;100.00
71791;BME280;59638;52.126;5.434;2024-02-16T07:57:06;100983.44;;;10.72;100.00
71791;BME280;59638;52.126;5.434;2024-02-16T07:59:32;100983.75;;;10.78;100.00
71791;BME280;59638;52.126;5.434;2024-02-16T08:01:58;100995.81;;;10.81;100.00
71791;BME280;59638;52.126;5.434;2024-02-16T08:04:25;100994.59;;;10.85;100.00
71791;BME280;59638;52.126;5.434;2024-02-16T08:06:51;100995.72;;;10.92;100.00
71791;BME280;59638;52.126;5.434;2024-02-16T08:09:18;101006.44;;;11.00;100.00
71791;BME280;59638;52.126;5.434;2024-02-16T08:11:44;101004.66;;;11.10;100.00
71791;BME280;59638;52.126;5.434;2024-02-16T08:14:11;101007.69;;;11.15;100.00
71791;BME280;59638;52.126;5.434;2024-02-16T08:16:37;101006.88;;;11.25;100.00
71791;BME280;59638;52.126;5.434;2024-02-16T08:19:04;101000.06;;;11.41;100.00
71791;BME280;59638;52.126;5.434;2024-02-16T08:21:30;101019.13;;;11.55;100.00
71791;BME280;59638;52.126;5.434;2024-02-16T08:23:57;101017.47;;;11.63;100.00
71791;BME280;59638;52.126;5.434;2024-02-16T08:26:23;101018.28;;;11.74;100.00
71791;BME280;59638;52.126;5.434;2024-02-16T08:28:50;101026.38;;;11.91;100.00
71791;BME280;59638;52.126;5.434;2024-02-16T08:31:17;101019.94;;;12.04;100.00
71791;BME280;59638;52.126;5.434;2024-02-16T08:33:45;101030.22;;;12.16;100.00
71791;BME280;59638;52.126;5.434;2024-02-16T08:36:14;101022.66;;;12.31;100.00
71791;BME280;59638;52.126;5.434;2024-02-16T08:38:41;101025.66;;;12.46;100.00
71791;BME280;59638;52.126;5.434;2024-02-16T08:41:07;101022.84;;;12.57;100.00
71791;BME280;59638;52.126;5.434;2024-02-16T08:43:33;101027.25;;;12.66;100.00
71791;BME280;59638;52.126;5.434;2024-02-16T08:46:00;101034.75;;;12.71;100.00
71791;BME280;59638;52.126;5.434;2024-02-16T08:48:26;101035.31;;;12.74;100.00
71791;BME280;59638;52.126;5.434;2024-02-16T08:50:53;101027.44;;;12.83;100.00
71791;BME280;59638;52.126;5.434;2024-02-16T08:53:19;101023.50;;;12.87;100.00
71791;BME280;59638;52.126;5.434;2024-02-16T08:55:46;101036.31;;;12.91;100.00
71791;BME280;59638;52.126;5.434;2024-02-16T08:58:12;101026.78;;;12.98;100.00
71791;BME280;59638;52.126;5.434;2024-02-16T09:00:39;101038.69;;;13.12;100.00
71791;BME280;59638;52.126;5.434;2024-02-16T09:03:06;101043.41;;;13.18;100.00
71791;BME280;59638;52.126;5.434;2024-02-16T09:05:34;101050.03;;;13.32;100.00
71791;BME280;59638;52.126;5.434;2024-02-16T09:08:01;101054.50;;;13.31;100.00
71791;BME280;59638;52.126;5.434;2024-02-16T09:10:29;101053.75;;;13.57;100.00
71791;BME280;59638;52.126;5.434;2024-02-16T09:12:55;101057.41;;;13.56;100.00
71791;BME280;59638;52.126;5.434;2024-02-16T09:15:22;101062.53;;;13.40;100.00
71791;BME280;59638;52.126;5.434;2024-02-16T09:17:48;101077.63;;;13.21;100.00
71791;BME280;59638;52.126;5.434;2024-02-16T09:20:15;101076.41;;;13.06;100.00
71791;BME280;59638;52.126;5.434;2024-02-16T09:22:42;101080.84;;;12.88;100.00
71791;BME280;59638;52.126;5.434;2024-02-16T09:25:13;101090.53;;;12.69;100.00
71791;BME280;59638;52.126;5.434;2024-02-16T09:27:40;101103.53;;;12.53;100.00
71791;BME280;59638;52.126;5.434;2024-02-16T09:30:12;101109.28;;;12.39;100.00
71791;BME280;59638;52.126;5.434;2024-02-16T09:32:40;101112.81;;;12.30;100.00
71791;BME280;59638;52.126;5.434;2024-02-16T09:35:08;101111.41;;;12.25;100.00
71791;BME280;59638;52.126;5.434;2024-02-16T09:37:35;101120.47;;;12.23;100.00
71791;BME280;59638;52.126;5.434;2024-02-16T09:40:04;101116.56;;;12.17;100.00
71791;BME280;59638;52.126;5.434;2024-02-16T09:42:33;101128.81;;;12.18;100.00
71791;BME280;59638;52.126;5.434;2024-02-16T09:45:05;101126.19;;;12.18;100.00
71791;BME280;59638;52.126;5.434;2024-02-16T09:47:33;101136.19;;;12.24;100.00
71791;BME280;59638;52.126;5.434;2024-02-16T09:50:01;101148.88;;;12.31;100.00
71791;BME280;59638;52.126;5.434;2024-02-16T09:52:27;101144.97;;;12.35;100.00
71791;BME280;59638;52.126;5.434;2024-02-16T09:54:54;101152.47;;;12.39;100.00
71791;BME280;59638;52.126;5.434;2024-02-16T09:57:21;101151.66;;;12.39;100.00
71791;BME280;59638;52.126;5.434;2024-02-16T09:59:48;101166.53;;;12.40;100.00
71791;BME280;59638;52.126;5.434;2024-02-16T10:02:14;101167.53;;;12.39;100.00
71791;BME280;59638;52.126;5.434;2024-02-16T10:04:41;101165.28;;;12.34;100.00
71791;BME280;59638;52.126;5.434;2024-02-16T10:07:07;101158.63;;;12.30;100.00
71791;BME280;59638;52.126;5.434;2024-02-16T10:09:39;101166.97;;;12.25;100.00
71791;BME280;59638;52.126;5.434;2024-02-16T10:12:07;101177.97;;;12.21;100.00
71791;BME280;59638;52.126;5.434;2024-02-16T10:14:34;101174.09;;;12.15;100.00
71791;BME280;59638;52.126;5.434;2024-02-16T10:17:05;101179.97;;;12.09;100.00
71791;BME280;59638;52.126;5.434;2024-02-16T10:19:32;101184.81;;;12.04;100.00
71791;BME280;59638;52.126;5.434;2024-02-16T10:22:12;101194.97;;;11.99;100.00
71791;BME280;59638;52.126;5.434;2024-02-16T10:24:39;101199.59;;;11.97;100.00
71791;BME280;59638;52.126;5.434;2024-02-16T10:27:16;101201.66;;;11.93;100.00
71791;BME280;59638;52.126;5.434;2024-02-16T10:29:46;101200.13;;;11.91;100.00
71791;BME280;59638;52.126;5.434;2024-02-16T10:32:13;101203.03;;;11.88;100.00
71791;BME280;59638;52.126;5.434;2024-02-16T10:34:40;101213.22;;;11.83;100.00
71791;BME280;59638;52.126;5.434;2024-02-16T10:37:08;101215.38;;;11.78;100.00
71791;BME280;59638;52.126;5.434;2024-02-16T10:39:35;101220.00;;;11.76;100.00
71791;BME280;59638;52.126;5.434;2024-02-16T10:42:02;101228.75;;;11.76;100.00
71791;BME280;59638;52.126;5.434;2024-02-16T10:44:29;101236.81;;;11.75;100.00
71791;BME280;59638;52.126;5.434;2024-02-16T10:46:55;101242.38;;;11.71;100.00
71791;BME280;59638;52.126;5.434;2024-02-16T10:49:24;101254.91;;;11.69;100.00
71791;BME280;59638;52.126;5.434;2024-02-16T10:51:56;101266.03;;;11.63;100.00
71791;BME280;59638;52.126;5.434;2024-02-16T10:54:27;101261.25;;;11.57;100.00
71791;BME280;59638;52.126;5.434;2024-02-16T10:56:55;101256.22;;;11.54;100.00
71791;BME280;59638;52.126;5.434;2024-02-16T10:59:21;101271.25;;;11.54;100.00
71791;BME280;59638;52.126;5.434;2024-02-16T11:01:59;101277.91;;;11.48;100.00
71791;BME280;59638;52.126;5.434;2024-02-16T11:04:36;101282.63;;;11.44;100.00
71791;BME280;59638;52.126;5.434;2024-02-16T11:07:11;101291.78;;;11.40;100.00
71791;BME280;59638;52.126;5.434;2024-02-16T11:09:39;101276.53;;;11.44;100.00
71791;BME280;59638;52.126;5.434;2024-02-16T11:12:07;101278.19;;;11.45;100.00
71791;BME280;59638;52.126;5.434;2024-02-16T11:14:40;101284.59;;;11.42;100.00
71791;BME280;59638;52.126;5.434;2024-02-16T11:17:11;101281.94;;;11.42;100.00
71791;BME280;59638;52.126;5.434;2024-02-16T11:19:45;101290.72;;;11.43;100.00
71791;BME280;59638;52.126;5.434;2024-02-16T11:22:19;101292.09;;;11.47;100.00
71791;BME280;59638;52.126;5.434;2024-02-16T11:24:53;101290.19;;;11.49;100.00
71791;BME280;59638;52.126;5.434;2024-02-16T11:27:24;101283.09;;;11.50;100.00
71791;BME280;59638;52.126;5.434;2024-02-16T11:29:51;101296.03;;;11.53;100.00
71791;BME280;59638;52.126;5.434;2024-02-16T11:32:18;101297.13;;;11.50;100.00
71791;BME280;59638;52.126;5.434;2024-02-16T11:34:45;101308.78;;;11.48;100.00
71791;BME280;59638;52.126;5.434;2024-02-16T11:37:13;101313.53;;;11.44;100.00
71791;BME280;59638;52.126;5.434;2024-02-16T11:39:40;101311.84;;;11.43;100.00
71791;BME280;59638;52.126;5.434;2024-02-16T11:42:12;101318.09;;;11.42;100.00
71791;BME280;59638;52.126;5.434;2024-02-16T11:44:53;101312.81;;;11.42;100.00
71791;BME280;59638;52.126;5.434;2024-02-16T11:47:23;101317.16;;;11.43;100.00
71791;BME280;59638;52.126;5.434;2024-02-16T11:50:10;101317.38;;;11.40;100.00
71791;BME280;59638;52.126;5.434;2024-02-16T11:52:38;101327.97;;;11.40;100.00
71791;BME280;59638;52.126;5.434;2024-02-16T11:55:09;101327.97;;;11.40;100.00
71791;BME280;59638;52.126;5.434;2024-02-16T11:57:36;101332.41;;;11.39;100.00
71791;BME280;59638;52.126;5.434;2024-02-16T12:00:04;101345.19;;;11.34;100.00
71791;BME280;59638;52.126;5.434;2024-02-16T12:02:35;101354.91;;;11.34;100.00
71791;BME280;59638;52.126;5.434;2024-02-16T12:05:02;101354.91;;;11.34;100.00
71791;BME280;59638;52.126;5.434;2024-02-16T12:07:30;101363.81;;;11.33;100.00
71791;BME280;59638;52.126;5.434;2024-02-16T12:09:59;101367.44;;;11.32;100.00
71791;BME280;59638;52.126;5.434;2024-02-16T12:12:26;101372.72;;;11.32;100.00
71791;BME280;59638;52.126;5.434;2024-02-16T12:14:54;101378.84;;;11.32;100.00
71791;BME280;59638;52.126;5.434;2024-02-16T12:17:21;101369.94;;;11.33;100.00
71791;BME280;59638;52.126;5.434;2024-02-16T12:19:47;101374.84;;;11.38;100.00
71791;BME280;59638;52.126;5.434;2024-02-16T12:22:22;101381.28;;;11.45;100.00
71791;BME280;59638;52.126;5.434;2024-02-16T12:24:49;101384.75;;;11.46;100.00
71791;BME280;59638;52.126;5.434;2024-02-16T12:27:17;101394.22;;;11.48;100.00
71791;BME280;59638;52.126;5.434;2024-02-16T12:29:43;101408.41;;;11.47;100.00
71791;BME280;59638;52.126;5.434;2024-02-16T12:32:10;101400.03;;;11.42;100.00
71791;BME280;59638;52.126;5.434;2024-02-16T12:34:37;101404.75;;;11.38;100.00
71791;BME280;59638;52.126;5.434;2024-02-16T12:37:05;101405.59;;;11.39;100.00
71791;BME280;59638;52.126;5.434;2024-02-16T12:39:34;101418.34;;;11.34;100.00
71791;BME280;59638;52.126;5.434;2024-02-16T12:42:00;101424.88;;;11.30;100.00